This is the latest recevied weather packets stored in our database for station/object SP5IZJ-2. If no packets are shown the sender has not sent any weather packets the latest 10 day(s).
| Time | Temp. | Humidity | Pressure | Rain* | Wind** | Luminosity | Snow |
|---|---|---|---|---|---|---|---|
| 1777868022 | 12.22° C | 58% | 1005.5 hPa | 0 mm | - | - | - |
| 1777867602 | 11.11° C | 58% | 1005.6 hPa | 0 mm | - | - | - |
| 1777865923 | 10.56° C | 60% | 1005.6 hPa | 0 mm | - | - | - |
| 1777865503 | 10° C | 61% | 1005.7 hPa | 0 mm | - | - | - |
| 1777864663 | 8.89° C | 63% | 1005.7 hPa | 0 mm | - | - | - |
| 1777863824 | 8.33° C | 64% | 1005.7 hPa | 0 mm | - | - | - |
| 1777862144 | 8.33° C | 62% | 1005.7 hPa | 0 mm | - | - | - |
| 1777859206 | 10° C | 60% | 1005.9 hPa | 0 mm | - | - | - |
| 1777858372 | 10.56° C | 61% | 1005.9 hPa | 0 mm | - | - | - |
| 1777857106 | 10° C | 60% | 1005.8 hPa | 0 mm | - | - | - |
| 1777856691 | 100° C | 100% | 0 hPa | 0 mm | - | - | - |
| 1777856267 | 10° C | 59% | 1005.9 hPa | 0 mm | - | - | - |
| 1777855007 | 10.56° C | 59% | 1006 hPa | 0 mm | - | - | - |
| 1777854168 | 10.56° C | 59% | 1005.9 hPa | 0 mm | - | - | - |
| 1777853748 | 10.56° C | 59% | 1005.8 hPa | 0 mm | - | - | - |
| 1777852908 | 10.56° C | 58% | 1005.8 hPa | 0 mm | - | - | - |
| 1777852488 | 10.56° C | 58% | 1005.8 hPa | 0 mm | - | - | - |
| 1777851229 | 10.56° C | 57% | 1006 hPa | 0 mm | - | - | - |
| 1777848710 | 11.67° C | 56% | 1006 hPa | 0 mm | - | - | - |
| 1777847870 | 11.67° C | 55% | 1006 hPa | 0 mm | - | - | - |
| 1777847461 | 11.67° C | 55% | 1006 hPa | 0 mm | - | - | - |
| 1777847031 | 11.11° C | 55% | 1006.1 hPa | 0 mm | - | - | - |
| 1777846611 | 11.11° C | 54% | 1006.1 hPa | 0 mm | - | - | - |
| 1777846191 | 11.11° C | 52% | 1006.3 hPa | 0 mm | - | - | - |
| 1777845771 | 11.67° C | 51% | 1006.2 hPa | 0 mm | - | - | - |
* Rain latest hour (hover to see other rain measurements)
** Current wind speed in m/s (hover to see current wind gust speed)